Terminal Aerodrome Forecast
Issued by NWS

Home | Current Version | Previous Version | Text Only | Print | Product List | Glossary On
Versions: 1 2 3 4 5 6 7 8 9 10 11 12 13 14 15 16 17 18 19 20 21 22 23 24 25
000
FTUS42 KJAX 021536 AAC
TAFVQQ
TAF AMD
KVQQ 021536Z 0216/0312 VRB03KT P6SM SCT008
      TEMPO 0216/0217 3SM BR BKN008
     FM021700 04003KT P6SM BKN018
     FM021900 03004KT P6SM BKN035
     FM030400 05002KT 4SM BR BKN004=

USA.gov is the U.S. government's official web portal to all federal, state and local government web resources and services.